Time;durP1;ratioP1;P1;durP2;ratioP2;P2;SDS_P1;SDS_P2;PMS_P1;PMS_P2;Temp;Humidity;BMP_temperature;BMP_pressure;BME280_temperature;BME280_humidity;BME280_pressure;Samples;Min_cycle;Max_cycle;Signal;HPM_P1;HPM_P2
2024/03/05 00:00:11;;;;;;;32.57;19.17;;;20.30;68.30;;;;;;5012445;28;20522;-78
2024/03/05 00:02:40;;;;;;;35.00;21.57;;;20.30;68.20;;;;;;5012064;28;20444;-79
2024/03/05 00:05:08;;;;;;;28.83;19.83;;;20.30;67.90;;;;;;5010959;28;20444;-80
2024/03/05 00:07:36;;;;;;;34.90;21.30;;;20.30;67.70;;;;;;5011594;28;20979;-79
2024/03/05 00:10:05;;;;;;;30.90;19.07;;;20.30;67.80;;;;;;5012261;28;20447;-78
2024/03/05 00:12:33;;;;;;;31.60;21.70;;;20.30;67.80;;;;;;5014282;28;20459;-79
2024/03/05 00:15:04;;;;;;;33.37;21.50;;;20.30;67.50;;;;;;5014490;28;20440;-76
2024/03/05 00:17:32;;;;;;;37.90;21.80;;;20.20;67.40;;;;;;5014202;28;20958;-80
2024/03/05 00:20:00;;;;;;;37.03;22.13;;;20.20;67.00;;;;;;5014971;28;20431;-79
2024/03/05 00:22:28;;;;;;;35.77;22.03;;;20.20;67.20;;;;;;5013351;28;20511;-80
2024/03/05 00:24:58;;;;;;;32.00;21.53;;;20.20;67.00;;;;;;5014092;28;20407;-79
2024/03/05 00:27:26;;;;;;;34.13;21.80;;;20.20;66.90;;;;;;5012424;28;20467;-79
2024/03/05 00:29:54;;;;;;;29.93;20.17;;;20.20;66.90;;;;;;5012887;28;20444;-79
2024/03/05 00:32:23;;;;;;;34.23;21.23;;;20.20;66.90;;;;;;5012778;28;20528;-79
2024/03/05 00:34:52;;;;;;;32.50;20.87;;;20.20;66.50;;;;;;5013087;28;20502;-79
2024/03/05 00:37:20;;;;;;;31.77;20.20;;;20.20;66.90;;;;;;5008323;28;20456;-78
2024/03/05 00:39:47;;;;;;;31.77;20.93;;;20.20;66.70;;;;;;5009672;28;20452;-80
2024/03/05 00:42:15;;;;;;;31.40;20.00;;;20.20;66.60;;;;;;5013964;28;20439;-77
2024/03/05 00:44:43;;;;;;;28.67;19.37;;;20.10;66.50;;;;;;5009077;28;20990;-78
2024/03/05 00:47:13;;;;;;;33.27;20.80;;;20.10;66.70;;;;;;5013549;28;20432;-78
2024/03/05 00:49:42;;;;;;;34.30;21.33;;;20.10;66.80;;;;;;5013126;28;20487;-80
2024/03/05 00:52:10;;;;;;;35.43;19.93;;;20.10;66.60;;;;;;5009166;28;20482;-79
2024/03/05 00:54:39;;;;;;;31.77;20.20;;;20.10;66.80;;;;;;5010930;28;20440;-78
2024/03/05 00:57:07;;;;;;;30.80;19.97;;;20.10;67.10;;;;;;5013747;28;20531;-77
2024/03/05 00:59:35;;;;;;;31.50;19.90;;;20.10;66.80;;;;;;5013853;28;20407;-79
2024/03/05 01:02:03;;;;;;;28.40;18.53;;;20.10;67.30;;;;;;5011705;28;20487;-80
2024/03/05 01:04:31;;;;;;;31.57;19.37;;;20.10;67.30;;;;;;5013452;28;20449;-80
2024/03/05 01:07:00;;;;;;;31.27;18.97;;;20.10;67.20;;;;;;5009044;28;20509;-79
2024/03/05 01:09:30;;;;;;;27.83;18.40;;;20.10;67.20;;;;;;5015424;28;20522;-79
2024/03/05 01:11:58;;;;;;;32.80;19.37;;;20.10;67.20;;;;;;5015050;28;20464;-78
2024/03/05 01:14:26;;;;;;;29.77;18.73;;;20.10;67.30;;;;;;5012738;28;20448;-78
2024/03/05 01:16:54;;;;;;;30.83;18.63;;;20.10;67.30;;;;;;5005514;28;20539;-79
2024/03/05 01:19:22;;;;;;;26.83;18.87;;;20.10;67.00;;;;;;5012688;28;20436;-79
2024/03/05 01:21:50;;;;;;;32.77;17.50;;;20.10;67.50;;;;;;5007052;28;20472;-78
2024/03/05 01:24:20;;;;;;;27.20;17.83;;;20.00;67.20;;;;;;5012790;28;20478;-79
2024/03/05 01:26:47;;;;;;;29.60;17.80;;;20.10;67.40;;;;;;5012883;28;20450;-79
2024/03/05 01:29:17;;;;;;;28.30;17.70;;;20.00;67.40;;;;;;5013475;28;20550;-80
2024/03/05 01:31:45;;;;;;;27.90;17.13;;;20.10;67.40;;;;;;5013851;28;20526;-80
2024/03/05 01:34:14;;;;;;;25.87;17.37;;;20.00;67.10;;;;;;5013425;28;20457;-79
2024/03/05 01:36:42;;;;;;;29.53;17.50;;;20.00;67.20;;;;;;5008206;28;20457;-79
2024/03/05 01:39:10;;;;;;;28.03;17.60;;;20.00;67.20;;;;;;5012716;28;20460;-79
2024/03/05 01:41:39;;;;;;;27.90;17.37;;;20.00;67.20;;;;;;5012161;28;20538;-79
2024/03/05 01:44:07;;;;;;;25.40;16.77;;;20.00;67.50;;;;;;5012620;28;20437;-79
2024/03/05 01:46:35;;;;;;;24.63;16.83;;;20.00;67.20;;;;;;5011536;28;20536;-77
2024/03/05 01:49:03;;;;;;;21.90;16.13;;;20.00;67.40;;;;;;5004789;28;20447;-78
2024/03/05 01:51:32;;;;;;;26.47;17.07;;;20.00;67.20;;;;;;5012042;28;20539;-79
2024/03/05 01:54:00;;;;;;;23.80;16.63;;;20.00;67.10;;;;;;5012238;28;20472;-79
2024/03/05 01:56:29;;;;;;;25.10;16.43;;;20.00;67.30;;;;;;5012753;28;20475;-79
2024/03/05 01:58:59;;;;;;;22.10;15.67;;;19.90;67.20;;;;;;5012239;28;20500;-79
2024/03/05 02:01:27;;;;;;;24.30;17.10;;;20.00;67.40;;;;;;5009250;28;20456;-79
2024/03/05 02:03:55;;;;;;;29.47;17.07;;;20.00;67.30;;;;;;5012319;28;20498;-79
2024/03/05 02:06:23;;;;;;;26.77;17.40;;;19.90;67.40;;;;;;5012566;28;20441;-79
2024/03/05 02:08:51;;;;;;;26.37;17.20;;;19.90;67.20;;;;;;5011988;28;20622;-79
2024/03/05 02:11:19;;;;;;;23.63;16.63;;;19.90;67.50;;;;;;5012578;28;20556;-79
2024/03/05 02:13:48;;;;;;;21.43;16.30;;;19.90;67.40;;;;;;5012151;28;20418;-79
2024/03/05 02:16:17;;;;;;;23.27;16.60;;;19.90;67.30;;;;;;5006648;28;20796;-80
2024/03/05 02:18:45;;;;;;;23.23;16.10;;;19.90;67.40;;;;;;5012024;28;20429;-80
2024/03/05 02:21:20;;;;;;;25.80;16.50;;;19.90;67.20;;;;;;5016610;28;20470;-78
2024/03/05 02:23:48;;;;;;;26.80;16.83;;;19.90;67.20;;;;;;5017290;28;20466;-79
2024/03/05 02:26:19;;;;;;;23.40;16.27;;;19.90;67.40;;;;;;5009788;28;20508;-79
2024/03/05 02:28:47;;;;;;;24.90;16.37;;;19.90;67.30;;;;;;5008971;28;20497;-79
2024/03/05 02:31:15;;;;;;;24.27;16.50;;;19.90;67.40;;;;;;5019808;28;20464;-80
2024/03/05 02:33:43;;;;;;;25.07;17.20;;;19.80;67.40;;;;;;5009685;28;20423;-79
2024/03/05 02:36:10;;;;;;;22.43;16.00;;;19.80;67.40;;;;;;5015336;28;20464;-79
2024/03/05 02:38:40;;;;;;;24.73;17.00;;;19.80;67.40;;;;;;5015519;28;20453;-80
2024/03/05 02:41:08;;;;;;;24.67;16.57;;;19.80;67.30;;;;;;5014657;28;20577;-81
2024/03/05 02:43:36;;;;;;;21.40;15.60;;;19.80;67.70;;;;;;5012133;28;20510;-79
2024/03/05 02:46:04;;;;;;;25.83;15.77;;;19.80;67.30;;;;;;5011472;28;20445;-79
2024/03/05 02:48:32;;;;;;;24.40;15.77;;;19.80;67.40;;;;;;5014370;28;20467;-79
2024/03/05 02:51:00;;;;;;;23.80;15.17;;;19.70;67.30;;;;;;5020024;28;20576;-80
2024/03/05 02:53:29;;;;;;;25.47;16.50;;;19.70;67.40;;;;;;5021128;28;20415;-80
2024/03/05 02:55:58;;;;;;;23.57;15.47;;;19.70;67.50;;;;;;5021308;28;20472;-81
2024/03/05 02:58:26;;;;;;;24.13;16.33;;;19.70;67.40;;;;;;5018828;28;20415;-79
2024/03/05 03:00:55;;;;;;;20.83;15.20;;;19.70;67.40;;;;;;5018005;28;20453;-80
2024/03/05 03:03:23;;;;;;;23.27;15.70;;;19.60;67.30;;;;;;5007349;28;20449;-77
2024/03/05 03:05:51;;;;;;;20.50;14.47;;;19.60;67.30;;;;;;5012614;28;20448;-79
2024/03/05 03:12:09;;;;;;;20.97;14.90;;;19.60;67.00;;;;;;5021354;28;20439;-79
2024/03/05 03:14:37;;;;;;;23.60;16.33;;;19.60;67.50;;;;;;5023198;28;20459;-80
2024/03/05 03:17:05;;;;;;;23.47;15.27;;;19.50;67.20;;;;;;5022622;28;20442;-77
2024/03/05 03:19:33;;;;;;;19.90;14.83;;;19.50;66.90;;;;;;5014817;28;20468;-80
2024/03/05 03:22:02;;;;;;;22.00;15.83;;;19.50;67.30;;;;;;5022692;28;20475;-80
2024/03/05 03:24:30;;;;;;;19.83;14.20;;;19.50;67.20;;;;;;5016227;28;20792;-80
2024/03/05 03:26:58;;;;;;;21.47;15.07;;;19.50;67.00;;;;;;5018873;28;20452;-81
2024/03/05 03:29:28;;;;;;;23.60;15.73;;;19.50;67.00;;;;;;5022185;28;20450;-81
2024/03/05 03:31:56;;;;;;;19.97;14.37;;;19.50;66.80;;;;;;5022799;28;20468;-80
2024/03/05 03:34:24;;;;;;;19.87;14.53;;;19.50;67.00;;;;;;5014923;28;20507;-80
2024/03/05 03:36:54;;;;;;;21.37;15.33;;;19.50;67.10;;;;;;5021146;28;20456;-81
2024/03/05 03:39:24;;;;;;;20.20;14.73;;;19.50;66.80;;;;;;5020145;28;20449;-81
2024/03/05 03:41:54;;;;;;;22.03;15.13;;;19.40;66.60;;;;;;5014858;28;20506;-80
2024/03/05 03:44:23;;;;;;;20.97;14.90;;;19.40;66.60;;;;;;5021763;28;20475;-80
2024/03/05 03:46:52;;;;;;;22.17;14.83;;;19.40;66.30;;;;;;5007370;28;20484;-80
2024/03/05 03:49:22;;;;;;;19.90;14.23;;;19.40;66.70;;;;;;5015496;28;20559;-80
2024/03/05 03:51:50;;;;;;;20.40;14.50;;;19.40;66.80;;;;;;5019910;28;20434;-80
2024/03/05 03:54:18;;;;;;;20.87;14.50;;;19.40;66.70;;;;;;5020890;28;20502;-80
2024/03/05 03:56:48;;;;;;;21.90;14.30;;;19.40;66.30;;;;;;5020190;28;20444;-80
2024/03/05 03:59:17;;;;;;;21.83;14.93;;;19.30;66.50;;;;;;5022750;28;20423;-79
2024/03/05 04:01:46;;;;;;;20.77;14.07;;;19.30;66.40;;;;;;5017357;28;20502;-80
2024/03/05 04:04:15;;;;;;;19.73;14.37;;;19.30;66.80;;;;;;5017044;28;20445;-81
2024/03/05 04:06:45;;;;;;;21.30;14.50;;;19.30;66.60;;;;;;5021651;28;20448;-79
2024/03/05 04:09:14;;;;;;;18.67;13.30;;;19.30;66.40;;;;;;5018968;28;20469;-80
2024/03/05 04:11:42;;;;;;;22.23;14.13;;;19.20;66.50;;;;;;5018792;28;20459;-80
2024/03/05 04:14:11;;;;;;;21.17;14.67;;;19.20;66.00;;;;;;5020348;28;20453;-80
2024/03/05 04:16:39;;;;;;;22.23;14.00;;;19.20;66.30;;;;;;5020813;28;20488;-80
2024/03/05 04:19:08;;;;;;;20.77;13.63;;;19.20;66.30;;;;;;5014850;28;20441;-80
2024/03/05 04:21:42;;;;;;;20.30;13.43;;;19.20;66.30;;;;;;5010118;28;20472;-80
2024/03/05 04:24:11;;;;;;;21.33;14.03;;;19.20;66.70;;;;;;5015610;28;20447;-79
2024/03/05 04:26:39;;;;;;;20.00;13.60;;;19.20;66.90;;;;;;5016694;28;20475;-79
2024/03/05 04:29:09;;;;;;;18.67;13.47;;;19.20;66.50;;;;;;5017172;28;20514;-80
2024/03/05 04:31:38;;;;;;;23.03;14.17;;;19.20;66.20;;;;;;5018116;28;20534;-80
2024/03/05 04:34:19;;;;;;;23.20;14.80;;;19.10;66.00;;;;;;5020628;28;20448;-80
2024/03/05 04:36:51;;;;;;;21.60;14.00;;;19.10;66.50;;;;;;5020052;28;20423;-80
2024/03/05 04:39:22;;;;;;;18.17;13.10;;;19.10;66.30;;;;;;5014165;28;20460;-80
2024/03/05 04:41:50;;;;;;;18.80;13.20;;;19.10;66.40;;;;;;5022457;28;20440;-81
2024/03/05 04:44:18;;;;;;;17.77;12.97;;;19.10;66.60;;;;;;5018000;28;20455;-81
2024/03/05 04:46:46;;;;;;;19.60;13.37;;;19.10;66.50;;;;;;5015572;28;20510;-80
2024/03/05 04:49:14;;;;;;;21.17;13.50;;;19.10;66.40;;;;;;5021089;28;20982;-81
2024/03/05 04:51:42;;;;;;;20.43;13.93;;;19.10;66.90;;;;;;5018916;28;20480;-80
2024/03/05 04:54:11;;;;;;;21.33;13.87;;;19.00;66.10;;;;;;5010543;28;20481;-81
2024/03/05 04:56:39;;;;;;;20.80;14.87;;;19.00;66.30;;;;;;5018757;28;20498;-81
2024/03/05 04:59:07;;;;;;;19.60;13.70;;;19.00;66.30;;;;;;5018362;28;20433;-81
2024/03/05 05:01:35;;;;;;;21.30;14.50;;;19.00;66.30;;;;;;5016895;28;20510;-81
2024/03/05 05:04:04;;;;;;;19.60;13.10;;;19.00;66.40;;;;;;5018077;28;20506;-82
2024/03/05 05:06:33;;;;;;;19.60;13.63;;;19.00;66.50;;;;;;5018370;28;20486;-80
2024/03/05 05:09:01;;;;;;;20.27;14.47;;;19.00;66.10;;;;;;5019261;28;20468;-79
2024/03/05 05:11:30;;;;;;;18.77;13.13;;;18.90;66.20;;;;;;5021167;28;20559;-81
2024/03/05 05:13:58;;;;;;;20.70;13.70;;;18.90;66.50;;;;;;5019956;28;20495;-81
2024/03/05 05:16:27;;;;;;;18.60;13.43;;;18.90;66.30;;;;;;5018775;28;20483;-81
2024/03/05 05:18:55;;;;;;;19.40;13.67;;;18.90;66.40;;;;;;5018680;28;20440;-81
2024/03/05 05:21:27;;;;;;;18.90;12.90;;;18.90;66.10;;;;;;5018628;28;20474;-80
2024/03/05 05:23:56;;;;;;;19.37;12.80;;;18.90;66.20;;;;;;5017716;28;20449;-82
2024/03/05 05:26:24;;;;;;;17.40;12.63;;;18.90;66.30;;;;;;5020417;28;20525;-81
2024/03/05 05:28:53;;;;;;;18.43;12.77;;;18.90;66.20;;;;;;5017218;28;20510;-81
2024/03/05 05:31:26;;;;;;;20.57;13.87;;;18.90;66.10;;;;;;5016655;28;20496;-81
2024/03/05 05:33:54;;;;;;;18.73;13.07;;;18.90;66.10;;;;;;5013259;28;20540;-80
2024/03/05 05:36:22;;;;;;;18.63;13.30;;;18.90;65.90;;;;;;5016409;28;20479;-80
2024/03/05 05:38:50;;;;;;;20.70;13.13;;;18.90;66.00;;;;;;5017356;28;20872;-80
2024/03/05 05:41:19;;;;;;;17.10;12.37;;;18.90;66.80;;;;;;5017838;28;20514;-82
2024/03/05 05:43:47;;;;;;;16.97;12.40;;;18.80;65.90;;;;;;5019338;28;20448;-81
2024/03/05 05:46:18;;;;;;;17.77;12.50;;;18.80;65.80;;;;;;5019550;28;20936;-81
2024/03/05 05:48:48;;;;;;;19.73;13.10;;;18.80;66.00;;;;;;5019187;28;20444;-79
2024/03/05 05:51:18;;;;;;;18.97;12.43;;;18.80;65.90;;;;;;5012249;28;20477;-81
2024/03/05 05:53:46;;;;;;;21.67;13.37;;;18.70;66.00;;;;;;5013984;28;20407;-81
2024/03/05 05:56:14;;;;;;;19.73;12.90;;;18.70;66.00;;;;;;5016535;28;20460;-82
2024/03/05 05:58:43;;;;;;;19.60;13.30;;;18.70;66.20;;;;;;5017492;28;20459;-81
2024/03/05 06:01:13;;;;;;;15.40;12.00;;;18.70;65.60;;;;;;5015999;28;20455;-82
2024/03/05 06:03:44;;;;;;;18.20;12.57;;;18.70;65.50;;;;;;5017785;28;20943;-78
2024/03/05 06:06:19;;;;;;;19.50;12.83;;;18.70;65.90;;;;;;5016315;28;20498;-81
2024/03/05 06:08:48;;;;;;;16.33;11.83;;;18.70;65.60;;;;;;5018340;28;20451;-81
2024/03/05 06:11:16;;;;;;;19.33;13.00;;;18.70;65.70;;;;;;5011748;28;20504;-79
2024/03/05 06:13:46;;;;;;;18.80;12.33;;;18.60;65.60;;;;;;5016946;28;20468;-82
2024/03/05 06:16:16;;;;;;;19.37;13.13;;;18.60;65.70;;;;;;5016556;28;20452;-82
2024/03/05 06:18:46;;;;;;;16.73;12.07;;;18.60;65.50;;;;;;5017217;28;20482;-81
2024/03/05 06:21:14;;;;;;;23.27;13.50;;;18.60;65.70;;;;;;5016228;28;20519;-80
2024/03/05 06:23:42;;;;;;;16.30;11.57;;;18.50;65.30;;;;;;5019894;28;20477;-80
2024/03/05 06:26:11;;;;;;;17.13;12.70;;;18.50;65.80;;;;;;5019982;28;20511;-79
2024/03/05 06:28:38;;;;;;;16.37;12.17;;;18.50;65.00;;;;;;5023150;28;20444;-79
2024/03/05 06:31:09;;;;;;;17.33;13.00;;;18.50;65.40;;;;;;5022927;28;20458;-79
2024/03/05 06:33:37;;;;;;;17.17;12.50;;;18.50;65.40;;;;;;5020628;28;20503;-79
2024/03/05 06:36:07;;;;;;;16.80;12.00;;;18.50;65.50;;;;;;5021957;28;20455;-79
2024/03/05 06:38:35;;;;;;;15.37;12.07;;;18.50;65.50;;;;;;5022880;28;20543;-80
2024/03/05 06:41:04;;;;;;;17.07;11.80;;;18.40;65.60;;;;;;5025058;28;20460;-80
2024/03/05 06:43:36;;;;;;;18.67;12.03;;;18.40;65.20;;;;;;5025281;28;20456;-79
2024/03/05 06:46:09;;;;;;;15.00;11.77;;;18.40;65.30;;;;;;5025002;28;20524;-79
2024/03/05 06:48:41;;;;;;;20.07;11.80;;;18.40;65.50;;;;;;5024109;28;20444;-78
2024/03/05 06:51:26;;;;;;;14.93;10.80;;;18.40;65.40;;;;;;5021051;28;20567;-79
2024/03/05 06:56:40;;;;;;;17.50;11.07;;;18.40;65.20;;;;;;5024445;28;20456;-79
2024/03/05 06:59:09;;;;;;;15.70;11.23;;;18.40;65.20;;;;;;5021527;28;20503;-80
2024/03/05 07:01:39;;;;;;;17.33;11.50;;;18.40;65.00;;;;;;5024886;28;20493;-79
2024/03/05 07:04:08;;;;;;;14.13;10.90;;;18.40;65.30;;;;;;5015805;28;20443;-80
2024/03/05 07:06:38;;;;;;;17.50;11.57;;;18.30;64.80;;;;;;5014550;28;20491;-80
2024/03/05 07:09:06;;;;;;;16.03;11.60;;;18.30;65.30;;;;;;5019131;28;20498;-79
2024/03/05 07:11:34;;;;;;;17.47;12.03;;;18.40;64.80;;;;;;5018689;28;20499;-79
2024/03/05 07:14:02;;;;;;;13.77;10.93;;;18.30;65.00;;;;;;5022473;28;20510;-79
2024/03/05 07:16:31;;;;;;;16.50;11.43;;;18.30;65.00;;;;;;5016829;28;20453;-79
2024/03/05 07:19:01;;;;;;;18.13;11.80;;;18.30;64.90;;;;;;5021126;28;20444;-79
2024/03/05 07:21:30;;;;;;;16.77;11.20;;;18.30;65.00;;;;;;5024463;28;20503;-80
2024/03/05 07:24:00;;;;;;;15.00;10.90;;;18.30;65.10;;;;;;5027452;28;20531;-78
2024/03/05 07:26:28;;;;;;;16.57;11.27;;;18.30;65.10;;;;;;5026771;28;20444;-79
2024/03/05 07:28:58;;;;;;;15.57;10.87;;;18.30;65.10;;;;;;5026098;28;20440;-80
2024/03/05 07:31:28;;;;;;;14.30;10.93;;;18.30;65.20;;;;;;5019913;28;20542;-80
2024/03/05 07:34:13;;;;;;;19.07;11.50;;;18.30;65.00;;;;;;5021892;28;20487;-79
2024/03/05 07:36:43;;;;;;;15.33;11.17;;;18.30;64.80;;;;;;5026340;28;20452;-79
2024/03/05 07:39:13;;;;;;;14.80;11.17;;;18.20;65.00;;;;;;5027831;28;20468;-79
2024/03/05 07:41:41;;;;;;;14.63;10.60;;;18.30;64.90;;;;;;5023229;28;20471;-79
2024/03/05 07:44:10;;;;;;;17.73;10.77;;;18.20;64.60;;;;;;5024047;28;20448;-80
2024/03/05 07:46:38;;;;;;;14.80;11.03;;;18.20;64.80;;;;;;5023078;28;20444;-79
2024/03/05 07:49:06;;;;;;;13.60;10.40;;;18.20;64.50;;;;;;5018389;28;20498;-79
2024/03/05 07:51:34;;;;;;;14.50;10.70;;;18.20;64.60;;;;;;5018713;28;20503;-80
2024/03/05 07:54:05;;;;;;;12.83;9.77;;;18.20;65.10;;;;;;5018563;28;20540;-79
2024/03/05 07:56:34;;;;;;;16.10;11.33;;;18.20;64.80;;;;;;5016532;28;20468;-79
2024/03/05 07:59:02;;;;;;;13.00;10.17;;;18.20;64.70;;;;;;5022689;28;20440;-80
2024/03/05 08:01:30;;;;;;;14.83;10.87;;;18.10;64.70;;;;;;5024543;28;20506;-80
2024/03/05 08:03:59;;;;;;;14.20;10.00;;;18.10;64.60;;;;;;5026611;28;20436;-79
2024/03/05 08:06:28;;;;;;;12.03;9.90;;;18.10;64.90;;;;;;5025997;28;20447;-79
2024/03/05 08:08:56;;;;;;;14.73;10.37;;;18.10;64.80;;;;;;5019005;28;20453;-79
2024/03/05 08:11:24;;;;;;;15.23;10.10;;;18.10;64.60;;;;;;5025680;28;20494;-79
2024/03/05 08:13:54;;;;;;;13.50;10.57;;;18.10;64.60;;;;;;5024039;28;20445;-79
2024/03/05 08:16:22;;;;;;;14.63;10.47;;;18.10;64.70;;;;;;5025247;28;20419;-80
2024/03/05 08:18:50;;;;;;;14.47;10.90;;;18.10;64.60;;;;;;5022706;28;20451;-79
2024/03/05 08:21:19;;;;;;;17.30;11.63;;;18.10;64.90;;;;;;5025091;28;20475;-79
2024/03/05 08:23:47;;;;;;;14.77;10.57;;;18.10;64.60;;;;;;5020755;28;20429;-79
2024/03/05 08:26:16;;;;;;;15.17;11.33;;;18.10;64.70;;;;;;5025013;28;20437;-78
2024/03/05 08:28:43;;;;;;;14.97;10.60;;;18.10;64.60;;;;;;5023213;28;20415;-79
2024/03/05 08:31:13;;;;;;;12.30;9.50;;;18.10;64.50;;;;;;5020446;28;20457;-79
2024/03/05 08:33:41;;;;;;;13.80;10.00;;;18.10;64.60;;;;;;5021750;28;20510;-79
2024/03/05 08:36:10;;;;;;;14.43;9.77;;;18.10;64.70;;;;;;5016900;28;20475;-79
2024/03/05 08:38:40;;;;;;;16.23;10.07;;;18.00;64.40;;;;;;5021322;28;20444;-79
2024/03/05 08:41:08;;;;;;;15.00;10.10;;;18.10;64.50;;;;;;5015837;28;20497;-81
2024/03/05 08:43:36;;;;;;;13.90;9.43;;;18.10;64.70;;;;;;5017721;28;20425;-78
2024/03/05 08:46:05;;;;;;;11.77;9.70;;;18.10;64.60;;;;;;5014127;28;20549;-78
2024/03/05 08:48:34;;;;;;;13.83;10.17;;;18.10;64.40;;;;;;5015400;28;20452;-78
2024/03/05 08:51:03;;;;;;;12.50;9.37;;;18.00;63.90;;;;;;5012157;28;20626;-78
2024/03/05 08:53:31;;;;;;;14.07;10.40;;;18.00;64.70;;;;;;5015449;28;20468;-78
2024/03/05 08:56:02;;;;;;;14.67;10.63;;;18.00;64.30;;;;;;5013916;28;20483;-78
2024/03/05 08:58:33;;;;;;;15.10;10.60;;;18.00;64.50;;;;;;5015565;28;20475;-78
2024/03/05 09:01:01;;;;;;;12.33;10.30;;;18.00;64.80;;;;;;5018839;28;20488;-81
2024/03/05 09:03:29;;;;;;;14.33;10.70;;;18.00;64.10;;;;;;5028148;28;20448;-80
2024/03/05 09:05:59;;;;;;;14.90;10.37;;;18.00;64.30;;;;;;5019494;28;20449;-80
2024/03/05 09:08:27;;;;;;;12.80;10.23;;;18.00;64.10;;;;;;5027695;28;20441;-80
2024/03/05 09:10:55;;;;;;;12.93;9.73;;;18.00;64.50;;;;;;5027163;28;20515;-80
2024/03/05 09:13:23;;;;;;;12.50;9.80;;;18.00;64.60;;;;;;5030543;28;20502;-82
2024/03/05 09:15:53;;;;;;;13.00;10.67;;;18.00;64.70;;;;;;5028685;28;20463;-81
2024/03/05 09:18:21;;;;;;;12.80;10.07;;;18.00;63.80;;;;;;5030379;28;20448;-81
2024/03/05 09:20:49;;;;;;;16.03;10.40;;;18.00;63.60;;;;;;5028916;28;20474;-81
2024/03/05 09:23:19;;;;;;;14.53;10.53;;;18.00;63.50;;;;;;5022636;28;20454;-82
2024/03/05 09:25:47;;;;;;;16.57;10.50;;;18.00;62.90;;;;;;5021753;28;20442;-82
2024/03/05 09:28:15;;;;;;;17.00;11.20;;;18.00;63.10;;;;;;5022786;28;20459;-80
2024/03/05 09:30:43;;;;;;;13.27;10.03;;;18.00;64.20;;;;;;5023227;28;20448;-80
2024/03/05 09:33:12;;;;;;;13.83;10.60;;;18.00;64.50;;;;;;5022997;28;20476;-80
2024/03/05 09:35:40;;;;;;;15.13;10.53;;;18.00;64.70;;;;;;5022744;28;20464;-80
2024/03/05 09:38:09;;;;;;;16.57;10.40;;;18.00;64.80;;;;;;5024348;28;20468;-80
2024/03/05 09:40:40;;;;;;;17.47;11.27;;;18.00;64.90;;;;;;5024082;28;20503;-80
2024/03/05 09:43:08;;;;;;;17.57;11.93;;;18.00;65.00;;;;;;5025423;28;20409;-80
2024/03/05 09:45:37;;;;;;;17.87;11.70;;;18.00;64.70;;;;;;5025819;28;20463;-80
2024/03/05 09:48:06;;;;;;;15.37;10.57;;;18.00;64.80;;;;;;5024688;28;20439;-80
2024/03/05 09:50:34;;;;;;;15.90;10.50;;;18.00;64.80;;;;;;5023051;28;20499;-80
2024/03/05 09:53:03;;;;;;;15.13;10.20;;;17.90;65.10;;;;;;5025948;28;20468;-79
2024/03/05 09:55:32;;;;;;;16.77;11.03;;;18.00;65.10;;;;;;5026542;28;20472;-80
2024/03/05 09:58:03;;;;;;;14.73;10.63;;;18.00;65.30;;;;;;5026526;28;20433;-79
2024/03/05 10:00:34;;;;;;;16.27;10.70;;;17.90;64.80;;;;;;5027951;28;20468;-80
2024/03/05 10:03:02;;;;;;;15.27;10.20;;;17.90;65.30;;;;;;5027589;28;20448;-80
2024/03/05 10:05:46;;;;;;;18.17;11.00;;;17.90;65.30;;;;;;5026051;28;20444;-80
2024/03/05 10:08:15;;;;;;;15.07;11.47;;;17.90;64.80;;;;;;5024709;28;20459;-80
2024/03/05 10:10:43;;;;;;;18.93;11.77;;;17.90;64.90;;;;;;5025800;28;20483;-79
2024/03/05 10:13:18;;;;;;;15.80;11.90;;;17.90;64.80;;;;;;5025514;28;20476;-80
2024/03/05 10:15:47;;;;;;;22.23;11.90;;;17.90;65.00;;;;;;5026599;28;20452;-80
2024/03/05 10:18:22;;;;;;;17.27;11.17;;;17.90;65.50;;;;;;5026060;28;20468;-80
2024/03/05 10:20:50;;;;;;;17.20;11.27;;;17.90;65.40;;;;;;5013719;28;20512;-78
2024/03/05 10:23:18;;;;;;;15.63;11.30;;;18.00;65.30;;;;;;5021091;28;20451;-78
2024/03/05 10:25:46;;;;;;;16.13;11.43;;;18.00;65.60;;;;;;5028281;28;20480;-78
2024/03/05 10:28:21;;;;;;;15.10;12.03;;;18.00;65.40;;;;;;5029596;28;20453;-79
2024/03/05 10:30:49;;;;;;;20.10;12.67;;;18.00;65.10;;;;;;5022717;28;20466;-78
2024/03/05 10:33:17;;;;;;;20.70;12.10;;;18.00;65.30;;;;;;5027184;28;20464;-78
2024/03/05 10:35:50;;;;;;;20.63;12.57;;;17.90;65.10;;;;;;5021267;28;20449;-80
2024/03/05 10:38:37;;;;;;;21.73;13.50;;;17.90;65.00;;;;;;5020805;28;20467;-79
2024/03/05 10:41:21;;;;;;;26.20;17.20;;;17.90;64.50;;;;;;5024700;28;20475;-73
2024/03/05 10:43:54;;;;;;;43.93;26.13;;;17.80;61.60;;;;;;5008596;28;20448;-73
2024/03/05 10:46:24;;;;;;;46.47;28.10;;;16.60;57.30;;;;;;5010680;28;20455;-74
2024/03/05 10:48:54;;;;;;;44.63;26.73;;;15.70;57.80;;;;;;5010536;28;20440;-73
2024/03/05 10:51:26;;;;;;;42.50;25.83;;;15.10;58.80;;;;;;5010018;28;20551;-75
2024/03/05 10:53:54;;;;;;;38.73;24.50;;;14.70;59.60;;;;;;5010390;28;20464;-74
2024/03/05 10:56:22;;;;;;;48.60;25.60;;;14.60;61.70;;;;;;5011103;28;20452;-75
2024/03/05 11:01:51;;;;;;;43.40;25.07;;;15.70;61.60;;;;;;5011034;28;21062;-75
2024/03/05 11:04:20;;;;;;;41.73;25.80;;;15.90;60.90;;;;;;5011686;28;20437;-74
2024/03/05 11:06:52;;;;;;;40.50;24.30;;;16.10;60.00;;;;;;5012646;28;20452;-75
2024/03/05 11:09:21;;;;;;;41.50;24.70;;;16.20;60.30;;;;;;5012357;28;20468;-75
2024/03/05 11:11:52;;;;;;;42.83;25.47;;;16.30;60.00;;;;;;5011430;28;20563;-73
2024/03/05 11:14:21;;;;;;;37.00;23.10;;;16.40;59.70;;;;;;5011901;28;20468;-73
2024/03/05 11:16:57;;;;;;;41.03;24.30;;;16.40;59.30;;;;;;5012365;28;20475;-71
2024/03/05 11:19:25;;;;;;;42.13;24.60;;;16.40;58.50;;;;;;5011930;28;20483;-74
2024/03/05 11:21:54;;;;;;;35.97;22.97;;;16.40;58.20;;;;;;5012082;28;20468;-72
2024/03/05 11:24:25;;;;;;;38.87;24.90;;;16.40;58.90;;;;;;5011453;28;20527;-72
2024/03/05 11:27:01;;;;;;;45.67;28.10;;;16.50;58.80;;;;;;5012387;28;20999;-72
2024/03/05 11:29:37;;;;;;;42.43;26.70;;;16.50;58.80;;;;;;5012438;28;20432;-73
2024/03/05 11:32:05;;;;;;;38.30;24.00;;;16.60;58.60;;;;;;5012424;28;20491;-73
2024/03/05 11:34:35;;;;;;;39.80;24.93;;;16.60;58.50;;;;;;5012818;28;20507;-74
2024/03/05 11:37:07;;;;;;;45.27;24.27;;;16.60;58.30;;;;;;5013556;28;20456;-73
2024/03/05 11:39:42;;;;;;;38.90;23.40;;;16.60;58.00;;;;;;5013400;28;20444;-73
2024/03/05 11:42:17;;;;;;;39.30;24.43;;;16.60;58.20;;;;;;5012216;28;20448;-73
2024/03/05 11:44:54;;;;;;;40.60;23.53;;;16.60;58.00;;;;;;5011832;28;20536;-74
2024/03/05 11:47:22;;;;;;;35.97;23.43;;;16.60;58.10;;;;;;5012452;28;20543;-73
2024/03/05 11:49:51;;;;;;;39.00;24.57;;;16.60;57.60;;;;;;5012434;28;20446;-73
2024/03/05 11:52:20;;;;;;;39.83;23.60;;;16.60;57.50;;;;;;5012058;28;20436;-73
2024/03/05 11:54:59;;;;;;;32.30;21.93;;;16.50;57.20;;;;;;5012192;28;20460;-73
2024/03/05 11:57:27;;;;;;;38.10;22.93;;;16.50;56.70;;;;;;5012971;28;21013;-74
2024/03/05 11:59:57;;;;;;;38.37;24.40;;;16.50;57.40;;;;;;5012013;28;20539;-72
2024/03/05 12:02:25;;;;;;;39.27;24.00;;;16.50;57.00;;;;;;5012163;28;20471;-72
2024/03/05 12:04:54;;;;;;;41.00;23.90;;;16.40;56.90;;;;;;5015451;28;20452;-73
2024/03/05 12:07:23;;;;;;;36.57;22.00;;;16.40;56.80;;;;;;5015846;28;21026;-72
2024/03/05 12:09:57;;;;;;;34.47;22.23;;;16.50;57.20;;;;;;5015941;28;20459;-73
2024/03/05 12:12:32;;;;;;;36.70;22.10;;;16.40;56.80;;;;;;5016976;28;20476;-72
2024/03/05 12:15:04;;;;;;;34.30;21.30;;;16.50;56.60;;;;;;5016791;28;20499;-73
2024/03/05 12:17:34;;;;;;;35.57;21.67;;;16.50;56.70;;;;;;5003041;28;20455;-73
2024/03/05 12:20:07;;;;;;;37.13;22.43;;;16.40;56.40;;;;;;5015955;28;20472;-73
2024/03/05 12:22:38;;;;;;;45.73;25.87;;;16.50;56.50;;;;;;4986935;23;1059786;-75
2024/03/05 12:25:08;;;;;;;43.30;24.03;;;16.50;56.40;;;;;;4995725;28;20195;-75
2024/03/05 12:27:37;;;;;;;40.47;24.07;;;16.50;56.50;;;;;;4984334;28;20461;-77
2024/03/05 12:30:07;;;;;;;41.70;24.37;;;16.50;56.60;;;;;;4976727;28;20438;-75
2024/03/05 12:32:36;;;;;;;37.90;23.30;;;16.50;56.40;;;;;;4989505;28;20532;-75
2024/03/05 12:35:05;;;;;;;36.23;22.60;;;16.50;56.30;;;;;;4995754;28;20480;-75
2024/03/05 12:37:34;;;;;;;40.00;24.10;;;16.50;56.30;;;;;;4996018;28;20433;-75
2024/03/05 12:40:07;;;;;;;36.03;22.50;;;16.60;56.30;;;;;;4995024;28;20456;-75
2024/03/05 12:42:35;;;;;;;38.00;22.67;;;16.50;56.00;;;;;;4995041;28;20544;-75
2024/03/05 12:45:04;;;;;;;35.67;22.00;;;16.60;56.00;;;;;;4988872;28;20489;-74
2024/03/05 12:47:38;;;;;;;40.43;22.53;;;16.60;56.10;;;;;;4984271;28;20442;-74